Time;durP1;ratioP1;P1;durP2;ratioP2;P2;SDS_P1;SDS_P2;PMS_P1;PMS_P2;Temp;Humidity;BMP_temperature;BMP_pressure;BME280_temperature;BME280_humidity;BME280_pressure;Samples;Min_cycle;Max_cycle;Signal;HPM_P1;HPM_P2
2021/08/15 00:01:14;;;;;;;14.10;2.33;;;;;;;15.17;83.87;100383.66;4833404;29;20038;-85
2021/08/15 00:03:39;;;;;;;17.15;3.20;;;;;;;15.37;83.99;100415.78;4847931;29;20045;-85
2021/08/15 00:06:05;;;;;;;16.77;3.03;;;;;;;15.56;84.23;100446.25;4839741;29;20034;-85
2021/08/15 00:08:32;;;;;;;17.42;2.85;;;;;;;15.44;84.46;100421.91;4828698;29;20078;-85
2021/08/15 00:10:57;;;;;;;13.43;2.60;;;;;;;15.23;84.50;100398.94;4829728;29;20051;-85
2021/08/15 00:13:24;;;;;;;17.45;2.83;;;;;;;15.83;84.50;100496.22;4828046;29;20019;-85
2021/08/15 00:15:49;;;;;;;17.05;3.17;;;;;;;15.81;84.77;100486.66;4828472;29;20055;-85
2021/08/15 00:18:15;;;;;;;21.80;2.90;;;;;;;15.14;84.92;100374.13;4844195;29;20023;-86
2021/08/15 00:20:42;;;;;;;14.88;2.45;;;;;;;15.19;85.11;100382.34;4831273;29;20080;-85
2021/08/15 00:23:08;;;;;;;13.63;2.35;;;;;;;15.57;85.04;100431.63;4846773;29;20029;-84
2021/08/15 00:25:34;;;;;;;14.75;2.55;;;;;;;15.26;84.23;100388.47;4848015;29;20069;-85
2021/08/15 00:28:00;;;;;;;17.45;2.60;;;;;;;15.53;83.82;100420.44;4828860;29;20044;-85
2021/08/15 00:30:26;;;;;;;16.08;2.42;;;;;;;15.24;83.97;100368.09;4827180;29;20034;-85
2021/08/15 00:32:52;;;;;;;16.30;2.80;;;;;;;15.24;83.73;100371.63;4829919;29;20015;-85
2021/08/15 00:35:17;;;;;;;18.70;3.38;;;;;;;15.88;84.12;100468.34;4843661;29;20046;-85
2021/08/15 00:45:28;;;;;;;15.98;2.60;;;;;;;15.16;84.09;100354.91;4866146;23;20068;-85
2021/08/15 00:47:53;;;;;;;15.20;2.08;;;;;;;15.34;84.02;100381.03;4841914;29;20070;-84
2021/08/15 00:50:19;;;;;;;16.88;3.28;;;;;;;15.18;84.01;100363.63;4829630;29;20019;-84
2021/08/15 00:52:45;;;;;;;13.13;2.50;;;;;;;15.47;82.76;100394.28;4828605;29;20038;-85
2021/08/15 00:55:11;;;;;;;14.63;2.30;;;;;;;15.22;82.49;100360.19;4844957;29;20026;-84
2021/08/15 00:57:41;;;;;;;13.57;3.08;;;;;;;15.30;82.57;100375.25;4846171;29;20041;-85
2021/08/15 01:00:10;;;;;;;16.00;2.67;;;;;;;15.13;82.53;100355.38;4847084;29;20022;-84
2021/08/15 01:02:40;;;;;;;11.93;2.22;;;;;;;15.47;81.98;100403.25;4877898;29;20059;-84
2021/08/15 01:05:06;;;;;;;14.00;2.55;;;;;;;15.90;82.14;100461.63;4863808;29;20078;-83
2021/08/15 01:07:32;;;;;;;13.95;2.28;;;;;;;15.25;82.86;100350.75;4849307;29;20046;-84
2021/08/15 01:09:58;;;;;;;15.95;2.72;;;;;;;15.54;82.94;100405.00;4866937;29;20018;-83
2021/08/15 01:12:27;;;;;;;12.93;2.22;;;;;;;15.92;83.54;100461.34;4864970;29;20488;-84
2021/08/15 01:14:54;;;;;;;16.52;3.10;;;;;;;15.23;83.34;100358.28;4846534;29;20049;-84
2021/08/15 01:17:22;;;;;;;16.08;3.10;;;;;;;15.90;83.50;100456.19;4846799;29;20023;-84
2021/08/15 01:19:53;;;;;;;18.08;2.63;;;;;;;15.86;83.43;100452.31;4847242;29;20094;-83
2021/08/15 01:22:19;;;;;;;16.15;3.15;;;;;;;15.25;83.16;100350.75;4847494;29;20033;-84
2021/08/15 01:24:45;;;;;;;14.85;2.80;;;;;;;15.42;83.44;100381.44;4846371;29;20026;-84
2021/08/15 01:27:11;;;;;;;11.45;2.28;;;;;;;15.89;83.99;100445.56;4858237;29;20029;-84
2021/08/15 01:29:37;;;;;;;16.55;3.15;;;;;;;15.45;84.38;100370.13;4866708;29;20032;-85
2021/08/15 01:32:02;;;;;;;13.70;3.00;;;;;;;15.51;84.46;100381.91;4863415;29;20034;-85
2021/08/15 01:34:28;;;;;;;17.20;2.72;;;;;;;15.22;84.68;100329.56;4864747;29;20030;-84
2021/08/15 01:36:54;;;;;;;15.48;2.55;;;;;;;15.48;84.23;100371.53;4867447;29;20018;-84
2021/08/15 01:39:19;;;;;;;19.45;2.85;;;;;;;15.34;84.38;100348.50;4864281;29;20049;-83
2021/08/15 01:41:45;;;;;;;12.52;2.13;;;;;;;15.25;84.04;100332.59;4881097;29;20029;-85
2021/08/15 01:44:11;;;;;;;14.10;2.55;;;;;;;15.67;84.04;100394.72;4864534;29;20079;-84
2021/08/15 01:46:37;;;;;;;18.55;3.10;;;;;;;15.91;84.69;100427.97;4861969;29;20058;-84
2021/08/15 01:49:03;;;;;;;15.93;2.83;;;;;;;15.47;84.97;100368.00;4853999;29;20038;-84
2021/08/15 01:51:30;;;;;;;17.63;3.30;;;;;;;15.13;85.26;100322.84;4847684;29;20094;-84
2021/08/15 01:53:57;;;;;;;15.10;2.70;;;;;;;15.15;85.54;100334.28;4854423;29;20026;-84
2021/08/15 01:56:23;;;;;;;15.57;3.20;;;;;;;15.46;85.22;100374.50;4846710;29;20102;-85
2021/08/15 01:58:49;;;;;;;18.67;2.88;;;;;;;15.14;85.51;100321.81;4848779;29;20015;-84
2021/08/15 02:01:17;;;;;;;17.02;3.03;;;;;;;15.54;85.11;100375.16;4845647;29;20075;-85
2021/08/15 02:03:44;;;;;;;19.73;3.08;;;;;;;15.17;84.90;100319.44;4845635;29;20086;-84
2021/08/15 02:06:09;;;;;;;16.15;2.63;;;;;;;15.32;85.59;100351.44;4847243;29;20014;-84
2021/08/15 02:08:35;;;;;;;14.05;2.55;;;;;;;15.27;86.01;100335.09;4845946;29;20027;-85
2021/08/15 02:11:01;;;;;;;17.08;2.90;;;;;;;15.20;85.82;100318.16;4848254;29;20066;-85
2021/08/15 02:13:27;;;;;;;21.83;3.97;;;;;;;15.86;86.17;100419.75;4845887;29;20117;-83
2021/08/15 02:15:52;;;;;;;20.15;2.90;;;;;;;15.85;85.56;100412.66;4844454;29;20049;-84
2021/08/15 02:18:18;;;;;;;18.75;3.25;;;;;;;15.38;85.67;100349.66;4859999;29;20045;-84
2021/08/15 02:20:44;;;;;;;12.02;2.50;;;;;;;15.22;85.80;100322.25;4845183;29;20359;-84
2021/08/15 02:23:10;;;;;;;16.50;2.40;;;;;;;15.17;85.42;100305.91;4844123;29;20055;-84
2021/08/15 02:25:35;;;;;;;17.17;2.70;;;;;;;15.34;85.51;100333.03;4840788;29;20049;-84
2021/08/15 02:28:02;;;;;;;12.45;2.30;;;;;;;15.50;85.27;100364.81;4844836;29;20462;-83
2021/08/15 02:30:28;;;;;;;17.67;2.80;;;;;;;15.62;85.03;100382.91;4842598;29;20037;-84
2021/08/15 02:32:54;;;;;;;12.40;2.58;;;;;;;15.48;85.21;100352.56;4849338;29;20030;-83
2021/08/15 02:35:20;;;;;;;14.93;2.60;;;;;;;15.56;85.55;100363.00;4860932;29;20082;-83
2021/08/15 02:37:48;;;;;;;23.52;3.58;;;;;;;15.92;85.62;100410.63;4858662;29;20030;-83
2021/08/15 02:40:16;;;;;;;19.63;2.92;;;;;;;15.67;85.79;100372.19;4855821;29;20058;-83
2021/08/15 02:42:43;;;;;;;18.23;3.10;;;;;;;15.97;85.87;100407.19;4828458;29;20058;-83
2021/08/15 02:45:11;;;;;;;13.52;2.88;;;;;;;15.55;85.40;100334.25;4842871;29;20069;-83
2021/08/15 02:47:37;;;;;;;16.52;2.78;;;;;;;15.44;85.70;100314.25;4860715;29;20029;-84
2021/08/15 02:50:03;;;;;;;17.25;3.40;;;;;;;15.97;85.92;100402.59;4861000;29;20097;-83
2021/08/15 02:52:29;;;;;;;18.20;2.60;;;;;;;15.66;86.22;100337.94;4844856;29;20033;-83
2021/08/15 02:54:55;;;;;;;12.10;2.42;;;;;;;15.34;86.05;100281.53;4843875;29;20038;-83
2021/08/15 02:57:21;;;;;;;15.30;2.60;;;;;;;15.49;85.48;100314.34;4843689;29;20059;-83
2021/08/15 02:59:46;;;;;;;14.18;2.33;;;;;;;15.96;85.81;100386.56;4842992;29;20061;-83
2021/08/15 03:02:14;;;;;;;11.05;2.40;;;;;;;15.23;84.99;100279.69;4833792;29;20046;-83
2021/08/15 03:04:41;;;;;;;16.38;3.30;;;;;;;15.26;85.24;100279.19;4824049;29;20034;-83
2021/08/15 03:07:07;;;;;;;13.18;2.42;;;;;;;15.38;85.09;100298.13;4853292;29;20090;-83
2021/08/15 03:09:32;;;;;;;15.90;2.90;;;;;;;15.48;85.35;100318.13;4860751;29;20049;-83
2021/08/15 03:12:01;;;;;;;10.88;2.65;;;;;;;16.00;85.02;100392.31;4844143;29;20118;-83
2021/08/15 03:14:26;;;;;;;11.93;2.38;;;;;;;15.60;84.57;100338.94;4843950;29;20039;-83
2021/08/15 03:16:52;;;;;;;8.23;1.77;;;;;;;15.37;82.59;100300.03;4842659;29;20030;-83
2021/08/15 03:19:18;;;;;;;9.82;1.85;;;;;;;15.92;80.99;100396.22;4841674;29;20029;-82
2021/08/15 03:21:44;;;;;;;13.95;2.58;;;;;;;15.98;80.25;100400.69;4854537;29;20133;-84
2021/08/15 03:24:10;;;;;;;11.40;2.30;;;;;;;15.71;80.07;100354.34;4837462;29;20050;-83
2021/08/15 03:26:37;;;;;;;14.82;2.28;;;;;;;15.28;80.31;100288.75;4837502;29;20030;-83
2021/08/15 03:29:03;;;;;;;12.50;2.33;;;;;;;15.80;80.37;100373.78;4839865;29;20037;-84
2021/08/15 03:31:28;;;;;;;11.02;2.17;;;;;;;15.29;80.12;100284.16;4839761;29;20034;-82
2021/08/15 03:33:54;;;;;;;15.50;3.53;;;;;;;15.52;80.76;100324.69;4867403;29;20030;-83
2021/08/15 03:36:20;;;;;;;16.10;2.78;;;;;;;15.45;81.04;100315.06;4859853;29;20061;-83
2021/08/15 03:38:45;;;;;;;11.77;2.38;;;;;;;15.36;81.07;100290.22;4855224;29;20038;-84
2021/08/15 03:41:11;;;;;;;15.30;2.30;;;;;;;16.02;80.89;100406.44;4845183;29;20034;-83
2021/08/15 03:43:37;;;;;;;12.90;2.17;;;;;;;15.25;80.74;100280.28;4840142;29;20354;-82
2021/08/15 03:46:03;;;;;;;12.80;2.15;;;;;;;15.56;80.66;100327.75;4839573;29;20068;-83
2021/08/15 03:48:30;;;;;;;10.80;2.10;;;;;;;15.52;80.87;100324.69;4838775;29;20038;-84
2021/08/15 03:50:55;;;;;;;14.38;2.40;;;;;;;15.35;81.01;100309.47;4838051;29;20014;-82
2021/08/15 03:53:21;;;;;;;14.13;2.22;;;;;;;15.32;80.76;100293.69;4842272;29;20021;-82
2021/08/15 03:55:47;;;;;;;13.68;2.47;;;;;;;15.27;80.11;100276.28;4853031;29;20018;-83
2021/08/15 03:58:12;;;;;;;11.60;1.88;;;;;;;15.33;80.83;100290.75;4859961;29;20057;-84
2021/08/15 04:00:41;;;;;;;8.20;2.00;;;;;;;15.89;81.27;100381.28;4855261;29;20037;-83
2021/08/15 04:03:08;;;;;;;12.20;2.30;;;;;;;15.33;80.93;100289.91;4840321;29;20026;-84
2021/08/15 04:05:34;;;;;;;12.52;2.00;;;;;;;15.44;80.37;100291.75;4839691;29;20022;-83
2021/08/15 04:08:00;;;;;;;11.02;2.25;;;;;;;15.56;80.10;100311.47;4842287;29;20406;-82
2021/08/15 04:10:25;;;;;;;14.98;2.10;;;;;;;15.61;79.95;100327.84;4842809;29;20018;-83
2021/08/15 04:12:51;;;;;;;22.27;2.78;;;;;;;16.00;79.79;100389.59;4856468;29;20045;-83
2021/08/15 04:15:17;;;;;;;12.93;2.35;;;;;;;15.35;79.93;100276.94;4854790;29;20045;-84
2021/08/15 04:17:43;;;;;;;12.93;2.40;;;;;;;15.62;80.09;100315.09;4858785;29;20045;-82
2021/08/15 04:20:09;;;;;;;13.90;2.42;;;;;;;15.77;80.59;100328.97;4861512;29;20033;-83
2021/08/15 04:22:35;;;;;;;12.93;2.40;;;;;;;15.65;80.08;100314.63;4841081;29;20048;-84
2021/08/15 04:25:00;;;;;;;11.32;2.33;;;;;;;15.65;80.15;100306.47;4830335;29;20034;-83
2021/08/15 04:27:26;;;;;;;17.33;2.75;;;;;;;15.50;80.62;100278.03;4829738;29;20026;-81
2021/08/15 04:29:51;;;;;;;13.27;2.67;;;;;;;15.42;81.07;100262.16;4830777;29;20086;-81
2021/08/15 04:32:17;;;;;;;20.10;2.90;;;;;;;15.42;82.11;100261.34;4830499;29;20138;-82
2021/08/15 04:34:43;;;;;;;14.18;2.55;;;;;;;15.61;82.66;100289.06;4832160;29;20041;-82
2021/08/15 04:37:09;;;;;;;15.07;3.08;;;;;;;15.72;82.81;100315.31;4843622;29;20361;-81
2021/08/15 04:39:37;;;;;;;17.73;3.13;;;;;;;15.66;82.26;100300.84;4849118;29;20026;-83
2021/08/15 04:42:03;;;;;;;15.82;2.42;;;;;;;15.69;82.15;100311.22;4830218;29;20446;-82
2021/08/15 04:44:29;;;;;;;14.10;2.28;;;;;;;15.63;81.75;100304.03;4831100;29;20123;-81
2021/08/15 04:46:55;;;;;;;13.80;2.22;;;;;;;15.62;81.03;100301.53;4833295;29;20022;-81
2021/08/15 04:49:20;;;;;;;13.60;3.13;;;;;;;15.75;81.27;100309.41;4849741;29;20090;-82
2021/08/15 04:51:46;;;;;;;18.88;3.30;;;;;;;15.62;81.13;100293.41;4849936;29;20381;-82
2021/08/15 04:54:11;;;;;;;14.25;2.53;;;;;;;15.79;81.27;100312.44;4831899;29;20061;-84
2021/08/15 04:56:37;;;;;;;14.45;2.60;;;;;;;15.60;81.65;100284.72;4831921;29;20063;-82
2021/08/15 04:59:02;;;;;;;12.10;2.00;;;;;;;15.85;81.81;100308.75;4831793;29;20097;-81
2021/08/15 05:01:28;;;;;;;18.50;3.00;;;;;;;15.65;82.58;100279.34;4839344;29;20428;-81
2021/08/15 05:03:53;;;;;;;19.70;2.60;;;;;;;15.65;83.30;100282.88;4846730;29;20380;-82
2021/08/15 05:06:19;;;;;;;17.00;3.10;;;;;;;15.56;84.12;100278.09;4849206;29;20030;-82
2021/08/15 05:08:44;;;;;;;17.27;2.67;;;;;;;15.78;84.58;100306.19;4836006;29;20034;-82
2021/08/15 05:11:10;;;;;;;13.48;2.40;;;;;;;15.69;84.60;100308.50;4830215;29;20018;-80
2021/08/15 05:13:36;;;;;;;14.48;3.00;;;;;;;15.76;85.00;100312.94;4829736;29;20045;-82
2021/08/15 05:16:01;;;;;;;16.40;2.65;;;;;;;15.77;85.24;100320.03;4832006;29;20053;-84
2021/08/15 05:18:27;;;;;;;11.40;2.20;;;;;;;15.93;84.36;100358.00;4830977;29;20051;-81
2021/08/15 05:20:53;;;;;;;12.38;2.13;;;;;;;15.57;83.15;100302.28;4828078;29;20038;-83
2021/08/15 05:23:18;;;;;;;18.95;2.85;;;;;;;16.25;82.58;100386.47;4830041;29;20031;-83
2021/08/15 05:25:46;;;;;;;18.63;2.80;;;;;;;15.74;82.73;100296.91;4837782;29;20042;-83
2021/08/15 05:28:12;;;;;;;21.05;2.83;;;;;;;15.88;82.57;100297.41;4833744;29;20418;-81
2021/08/15 05:30:38;;;;;;;15.25;2.67;;;;;;;16.02;81.81;100327.75;4837685;29;20108;-82
2021/08/15 05:33:03;;;;;;;12.02;2.28;;;;;;;16.02;81.53;100308.75;4837645;29;20022;-82
2021/08/15 05:35:29;;;;;;;12.98;2.80;;;;;;;16.26;80.53;100323.81;4835078;29;20074;-81
2021/08/15 05:37:54;;;;;;;23.85;2.58;;;;;;;16.30;80.52;100333.09;4833815;29;20453;-82
2021/08/15 05:40:20;;;;;;;16.17;2.50;;;;;;;16.09;80.43;100302.09;4837204;29;20035;-82
2021/08/15 05:42:46;;;;;;;12.77;2.88;;;;;;;16.00;80.07;100305.47;4848672;29;20030;-83
2021/08/15 05:45:12;;;;;;;17.63;2.58;;;;;;;16.03;79.32;100310.41;4841912;29;20046;-84
2021/08/15 05:47:38;;;;;;;13.43;2.35;;;;;;;16.03;78.78;100316.66;4844908;29;20038;-84
2021/08/15 05:50:05;;;;;;;16.35;2.00;;;;;;;16.43;78.38;100384.34;4841837;29;20038;-83
2021/08/15 05:52:31;;;;;;;11.40;2.28;;;;;;;16.62;77.07;100389.47;4848453;29;20014;-83
2021/08/15 05:54:58;;;;;;;11.68;1.95;;;;;;;16.08;76.38;100280.63;4842520;29;20037;-83
2021/08/15 05:57:23;;;;;;;11.45;2.20;;;;;;;16.14;76.29;100257.91;4842537;29;20035;-84
2021/08/15 05:59:49;;;;;;;12.73;2.08;;;;;;;16.99;76.37;100394.41;4844878;29;20066;-83
2021/08/15 06:02:15;;;;;;;10.18;2.05;;;;;;;16.47;76.47;100305.09;4844733;29;20030;-84
2021/08/15 06:04:40;;;;;;;10.10;2.28;;;;;;;16.52;75.75;100283.41;4838712;29;20042;-82
2021/08/15 06:07:06;;;;;;;9.90;2.10;;;;;;;16.68;74.74;100299.66;4837644;29;20031;-83
2021/08/15 06:09:32;;;;;;;13.50;2.70;;;;;;;16.77;74.32;100304.69;4862739;29;20036;-85
2021/08/15 06:12:04;;;;;;;13.18;2.55;;;;;;;16.60;73.71;100297.41;4863964;29;20022;-86
2021/08/15 06:14:30;;;;;;;8.85;2.00;;;;;;;17.37;72.41;100393.50;4865668;29;20034;-86
2021/08/15 06:16:55;;;;;;;9.07;1.70;;;;;;;16.92;70.83;100318.50;4866013;29;20461;-85
2021/08/15 06:19:24;;;;;;;9.18;1.60;;;;;;;16.93;71.16;100303.81;4863668;29;20030;-85
2021/08/15 06:21:49;;;;;;;13.50;2.25;;;;;;;17.03;72.33;100314.00;4846627;29;20050;-82
2021/08/15 06:24:15;;;;;;;8.60;1.80;;;;;;;17.59;72.74;100401.66;4847331;29;20042;-88
2021/08/15 06:29:16;;;;;;;9.77;2.17;;;;;;;17.29;72.38;100337.69;5296966;24;20062;-86
2021/08/15 06:31:42;;;;;;;8.82;1.60;;;;;;;17.12;72.05;100310.56;4847369;29;20026;-86
2021/08/15 06:34:08;;;;;;;10.95;1.88;;;;;;;17.54;71.96;100358.06;4834414;29;20052;-86
2021/08/15 06:44:15;;;;;;;8.15;1.85;;;;;;;17.89;72.39;100387.56;4851018;29;20488;-81
2021/08/15 06:46:40;;;;;;;8.45;1.75;;;;;;;17.69;72.03;100355.50;4870839;29;20025;-86
2021/08/15 06:49:06;;;;;;;7.10;2.08;;;;;;;17.21;72.61;100315.53;4873584;29;20034;-84
2021/08/15 06:51:32;;;;;;;8.40;1.75;;;;;;;17.34;72.11;100335.00;4851438;29;20019;-84
2021/08/15 06:53:58;;;;;;;7.97;2.00;;;;;;;17.59;72.09;100367.09;4860206;29;20022;-86
2021/08/15 06:56:23;;;;;;;8.77;1.80;;;;;;;18.10;72.44;100436.75;4863292;29;20067;-85
2021/08/15 06:58:50;;;;;;;13.02;2.20;;;;;;;17.74;72.86;100407.25;4845168;29;20034;-85
2021/08/15 07:01:17;;;;;;;10.77;2.10;;;;;;;17.08;72.60;100301.25;4841901;29;20034;-83
2021/08/15 07:03:42;;;;;;;8.82;1.80;;;;;;;17.24;72.74;100317.75;4848258;29;20006;-82
2021/08/15 07:06:08;;;;;;;8.32;1.73;;;;;;;17.31;71.55;100359.97;4846783;29;20046;-85
2021/08/15 07:08:34;;;;;;;11.02;1.90;;;;;;;17.12;72.21;100340.47;4875367;24;20055;-86
2021/08/15 07:10:59;;;;;;;8.40;1.92;;;;;;;17.30;72.04;100355.63;5151508;23;20110;-86
2021/08/15 07:26:19;;;;;;;11.55;2.00;;;;;;;18.03;69.94;100431.53;5040877;23;20344;-88
2021/08/15 07:28:45;;;;;;;8.95;1.98;;;;;;;17.58;69.42;100329.25;4866729;29;20045;-87
2021/08/15 07:31:11;;;;;;;11.25;2.30;;;;;;;17.43;69.78;100320.97;4863778;29;20017;-88
2021/08/15 07:49:07;;;;;;;7.07;1.75;;;;;;;18.08;68.04;100369.78;4982221;23;20038;-87
2021/08/15 07:51:33;;;;;;;7.53;1.75;;;;;;;17.87;67.27;100329.03;4878522;23;20070;-86
2021/08/15 07:53:58;;;;;;;10.32;1.50;;;;;;;17.90;67.55;100336.66;4847681;29;20018;-86
2021/08/15 07:56:24;;;;;;;7.35;1.60;;;;;;;18.72;67.67;100434.31;5014859;24;20027;-84
2021/08/15 07:58:50;;;;;;;7.55;1.52;;;;;;;18.70;67.38;100441.88;5013761;24;20050;-87
2021/08/15 08:01:19;;;;;;;7.32;1.27;;;;;;;17.90;68.24;100355.72;4851948;29;20027;-86
2021/08/15 08:03:45;;;;;;;8.95;2.20;;;;;;;17.60;68.03;100338.81;4827721;29;20027;-84
2021/08/15 08:06:10;;;;;;;11.02;1.90;;;;;;;18.15;68.07;100440.34;4848610;29;20041;-85
2021/08/15 08:08:36;;;;;;;13.48;1.98;;;;;;;17.96;68.39;100398.25;4847814;29;20027;-85
2021/08/15 08:11:02;;;;;;;7.85;1.40;;;;;;;17.81;67.92;100364.38;4850595;29;20090;-86
2021/08/15 08:13:29;;;;;;;7.30;1.90;;;;;;;17.80;67.44;100351.00;4844085;29;20033;-85
2021/08/15 08:15:55;;;;;;;9.75;1.88;;;;;;;17.72;67.78;100335.13;4859291;29;20035;-87
2021/08/15 08:18:24;;;;;;;9.80;1.92;;;;;;;17.66;67.77;100328.81;4863202;29;20039;-86
2021/08/15 08:20:49;;;;;;;10.40;2.38;;;;;;;17.75;67.97;100350.94;4864645;29;20010;-86
2021/08/15 08:23:16;;;;;;;8.95;1.75;;;;;;;17.56;67.62;100348.56;4860480;29;20028;-86
2021/08/15 08:25:44;;;;;;;10.52;2.20;;;;;;;17.57;67.93;100349.38;4861534;29;20021;-86
2021/08/15 08:28:11;;;;;;;8.45;1.80;;;;;;;18.12;69.06;100457.22;4879361;29;20022;-88
2021/08/15 08:30:37;;;;;;;7.45;1.90;;;;;;;17.83;68.95;100405.75;4863528;29;20013;-87
2021/08/15 08:33:03;;;;;;;8.07;2.03;;;;;;;17.62;69.07;100393.00;4844901;29;20030;-82
2021/08/15 08:35:29;;;;;;;11.55;2.08;;;;;;;17.51;68.51;100375.72;4845592;29;20034;-84
2021/08/15 08:37:55;;;;;;;12.60;2.17;;;;;;;17.54;67.64;100371.66;4844626;29;20358;-85
2021/08/15 08:40:21;;;;;;;5.32;1.35;;;;;;;17.48;66.76;100343.59;4845630;29;20030;-84
2021/08/15 08:42:48;;;;;;;9.80;1.98;;;;;;;17.87;67.43;100399.78;4879002;29;20038;-84
2021/08/15 08:45:17;;;;;;;8.93;2.03;;;;;;;17.76;66.55;100396.13;4862419;29;20006;-85
2021/08/15 08:47:43;;;;;;;8.57;1.73;;;;;;;17.42;65.80;100344.63;4853511;29;20030;-85
2021/08/15 08:50:10;;;;;;;8.40;1.95;;;;;;;17.88;67.57;100390.53;4860043;29;20072;-83
2021/08/15 08:52:37;;;;;;;8.82;2.40;;;;;;;17.77;67.33;100378.72;4857952;29;20095;-87
2021/08/15 08:55:05;;;;;;;9.45;1.85;;;;;;;18.48;67.08;100471.97;4843930;29;20031;-86
2021/08/15 08:57:31;;;;;;;11.02;2.17;;;;;;;17.92;66.58;100397.94;4846824;29;20074;-87
2021/08/15 08:59:58;;;;;;;7.63;1.60;;;;;;;17.81;65.56;100383.41;4846993;29;20030;-86
2021/08/15 09:02:24;;;;;;;9.05;2.05;;;;;;;17.66;66.65;100383.22;4849170;29;20074;-86
2021/08/15 09:04:50;;;;;;;11.32;2.00;;;;;;;17.74;66.35;100373.78;4853448;29;20022;-87
2021/08/15 09:07:19;;;;;;;11.35;1.95;;;;;;;18.08;65.68;100426.13;4858448;29;20018;-84
2021/08/15 09:10:02;;;;;;;8.25;1.80;;;;;;;18.02;64.51;100410.84;4865775;29;20030;-85
2021/08/15 09:12:39;;;;;;;8.05;1.90;;;;;;;17.99;65.24;100414.06;4851340;29;20027;-87
2021/08/15 09:15:18;;;;;;;12.18;2.28;;;;;;;18.12;66.05;100443.59;4849971;29;20022;-86
2021/08/15 09:17:45;;;;;;;5.78;1.60;;;;;;;18.41;66.31;100495.03;4864251;29;20041;-86
2021/08/15 09:20:14;;;;;;;8.90;2.00;;;;;;;18.06;66.86;100425.56;4862411;29;20064;-85
2021/08/15 09:22:40;;;;;;;8.52;1.90;;;;;;;18.50;66.48;100464.34;4841582;29;20018;-85
2021/08/15 09:25:12;;;;;;;9.52;2.10;;;;;;;18.42;66.13;100426.69;4853449;29;20034;-86
2021/08/15 09:27:50;;;;;;;9.43;1.90;;;;;;;18.54;66.02;100429.22;4844796;29;20034;-85
2021/08/15 09:30:22;;;;;;;10.43;2.00;;;;;;;19.07;66.32;100494.78;4863668;29;20042;-86
2021/08/15 09:33:00;;;;;;;8.00;1.70;;;;;;;18.47;65.88;100418.53;4852132;29;20018;-87
2021/08/15 09:35:36;;;;;;;8.60;1.48;;;;;;;18.23;65.42;100376.41;4850338;29;20053;-86
2021/08/15 09:38:05;;;;;;;7.90;1.60;;;;;;;19.07;65.61;100505.69;4863673;29;20034;-86
2021/08/15 09:40:35;;;;;;;6.57;1.98;;;;;;;18.52;64.87;100429.50;4864013;29;20034;-84
2021/08/15 09:43:03;;;;;;;8.55;1.65;;;;;;;18.76;65.48;100505.47;4849777;29;20080;-85
2021/08/15 09:45:36;;;;;;;5.32;1.40;;;;;;;18.11;65.83;100427.50;4857352;29;20027;-85
2021/08/15 09:48:20;;;;;;;11.93;2.20;;;;;;;18.26;65.88;100461.16;4864267;29;20026;-85
2021/08/15 09:51:10;;;;;;;6.07;1.48;;;;;;;18.57;66.73;100513.19;4868148;29;20464;-85
2021/08/15 09:53:38;;;;;;;5.85;1.60;;;;;;;18.08;67.63;100464.25;4847314;29;20166;-86
2021/08/15 09:56:04;;;;;;;7.75;1.80;;;;;;;17.98;67.78;100445.91;4856021;29;20002;-87
2021/08/15 09:58:31;;;;;;;7.28;1.40;;;;;;;17.68;68.17;100402.84;4848412;29;20061;-86
2021/08/15 10:00:57;;;;;;;8.23;1.58;;;;;;;18.10;68.59;100464.81;4848617;29;20103;-83
2021/08/15 10:03:23;;;;;;;8.05;1.55;;;;;;;17.81;68.77;100440.56;4839962;29;20026;-83
2021/08/15 10:05:49;;;;;;;5.82;1.48;;;;;;;18.17;67.92;100494.56;4846373;29;20109;-84
2021/08/15 10:08:15;;;;;;;10.75;1.92;;;;;;;17.77;67.32;100411.38;4844902;29;20030;-83
2021/08/15 10:10:41;;;;;;;7.57;1.90;;;;;;;18.36;68.39;100490.38;4872253;29;20048;-84
2021/08/15 10:13:07;;;;;;;6.65;1.90;;;;;;;17.98;68.88;100407.81;4860329;29;20026;-84
2021/08/15 10:15:36;;;;;;;5.43;1.75;;;;;;;18.82;68.34;100512.59;4853357;29;20030;-83
2021/08/15 10:18:07;;;;;;;9.55;1.90;;;;;;;18.21;68.13;100408.53;4847810;29;20031;-84
2021/08/15 10:20:33;;;;;;;9.32;1.80;;;;;;;18.42;68.46;100473.00;4847993;29;20045;-85
2021/08/15 10:23:10;;;;;;;7.28;1.35;;;;;;;18.61;68.13;100481.63;4861678;29;20037;-84
2021/08/15 10:25:41;;;;;;;8.48;1.90;;;;;;;18.26;67.23;100422.19;4878244;29;20446;-85
2021/08/15 10:28:07;;;;;;;6.35;1.85;;;;;;;18.24;68.25;100427.06;4872100;29;20039;-86
2021/08/15 10:33:14;;;;;;;10.15;2.03;;;;;;;18.83;66.27;100532.50;5011633;23;20042;-86
2021/08/15 10:35:40;;;;;;;11.05;1.85;;;;;;;18.28;66.82;100445.38;4852006;29;20046;-85
2021/08/15 10:38:08;;;;;;;8.25;1.83;;;;;;;18.62;68.02;100487.88;4846869;29;20023;-85
2021/08/15 10:40:40;;;;;;;7.43;1.90;;;;;;;18.95;68.58;100530.44;4843863;29;20370;-85
2021/08/15 10:43:14;;;;;;;7.07;1.75;;;;;;;18.21;67.33;100420.28;4841179;29;20018;-86
2021/08/15 10:45:40;;;;;;;10.18;1.90;;;;;;;18.15;68.22;100412.31;4848696;29;20045;-87
2021/08/15 10:48:09;;;;;;;7.88;1.50;;;;;;;18.76;67.23;100509.00;4830930;29;20027;-84
2021/08/15 10:55:49;;;;;;;11.15;2.33;;;;;;;18.85;68.23;100535.81;4897961;24;20066;-84
2021/08/15 10:58:37;;;;;;;9.20;1.83;;;;;;;18.75;68.30;100523.72;4845449;29;20099;-86
2021/08/15 11:06:31;;;;;;;13.32;1.85;;;;;;;18.94;67.45;100534.22;5015538;23;20074;-83
2021/08/15 11:09:08;;;;;;;7.82;1.77;;;;;;;18.54;66.48;100475.53;4846772;29;20078;-86
2021/08/15 11:11:35;;;;;;;6.03;1.25;;;;;;;18.55;67.23;100493.56;4856632;29;20056;-86
2021/08/15 11:22:10;;;;;;;10.70;1.70;;;;;;;18.00;68.14;100445.66;4911245;24;20046;-86
2021/08/15 11:24:43;;;;;;;11.55;1.77;;;;;;;18.08;67.44;100458.81;4848053;29;20014;-86
2021/08/15 11:27:14;;;;;;;14.13;1.80;;;;;;;18.76;68.00;100544.44;4873509;29;20022;-87
2021/08/15 11:29:42;;;;;;;7.43;1.50;;;;;;;18.88;68.53;100540.75;4885987;29;20042;-88
2021/08/15 11:50:21;;;;;;;4.63;1.40;;;;;;;18.47;64.77;100421.28;5837587;23;20035;-85
2021/08/15 11:55:25;;;;;;;7.05;1.58;;;;;;;18.43;62.89;100447.41;4876519;24;20082;-86
2021/08/15 11:57:53;;;;;;;5.78;1.70;;;;;;;19.25;65.19;100547.00;4897812;23;20054;-82
2021/08/15 12:00:31;;;;;;;8.40;1.65;;;;;;;18.57;65.50;100446.97;4846378;29;20038;-87
2021/08/15 12:03:06;;;;;;;5.80;1.63;;;;;;;18.86;65.09;100482.91;4846876;29;20022;-84
2021/08/15 12:05:35;;;;;;;4.20;1.10;;;;;;;18.79;65.14;100494.03;4854568;29;20026;-84
2021/08/15 12:08:06;;;;;;;6.85;1.58;;;;;;;18.31;64.43;100453.03;4844914;29;20098;-84
2021/08/15 12:10:38;;;;;;;8.73;1.50;;;;;;;18.11;65.98;100444.66;4848280;29;20018;-85
2021/08/15 12:13:15;;;;;;;6.57;1.63;;;;;;;18.44;66.17;100462.69;4863990;29;20026;-85
2021/08/15 12:15:46;;;;;;;8.60;1.70;;;;;;;18.78;66.36;100500.59;4861144;29;20009;-85
2021/08/15 12:18:48;;;;;;;7.75;2.17;;;;;;;18.81;66.97;100491.88;4845926;29;20023;-86
2021/08/15 12:21:19;;;;;;;7.90;1.92;;;;;;;19.21;67.26;100548.63;4841588;29;20049;-86
2021/08/15 12:24:20;;;;;;;9.00;2.15;;;;;;;19.24;66.32;100559.00;4857582;29;20038;-86
2021/08/15 12:26:52;;;;;;;9.05;1.73;;;;;;;19.24;66.06;100555.47;4839125;29;20046;-85
2021/08/15 12:29:25;;;;;;;10.07;2.00;;;;;;;19.33;66.31;100553.84;4841632;29;20022;-84
2021/08/15 12:32:11;;;;;;;11.23;2.45;;;;;;;19.49;66.81;100560.22;4847339;29;20109;-83
2021/08/15 12:34:44;;;;;;;15.13;2.10;;;;;;;19.01;66.93;100502.13;4844042;29;20026;-86
2021/08/15 12:37:19;;;;;;;7.40;2.05;;;;;;;18.86;67.85;100491.91;4844878;29;20074;-84
2021/08/15 12:39:49;;;;;;;7.90;1.50;;;;;;;18.67;66.70;100475.09;4845084;29;20055;-84
2021/08/15 12:42:21;;;;;;;5.57;1.42;;;;;;;18.65;65.83;100477.28;4858518;29;20030;-83
2021/08/15 12:44:58;;;;;;;9.13;1.70;;;;;;;18.99;65.96;100520.63;4854340;29;20018;-85
2021/08/15 12:47:25;;;;;;;7.72;1.60;;;;;;;18.89;66.28;100494.13;4861370;29;20019;-86
2021/08/15 12:49:53;;;;;;;6.43;1.27;;;;;;;18.66;65.98;100453.56;4850902;29;20091;-86